createdAt,value
2023-05-07T00:01:12.908Z,13.23
2023-05-07T00:04:00.627Z,13.85
2023-05-07T00:06:48.155Z,16.23
2023-05-07T00:09:35.713Z,16.75
2023-05-07T00:12:23.389Z,16.70
2023-05-07T00:15:11.555Z,15.65
2023-05-07T00:18:00.760Z,17.42
2023-05-07T00:20:48.472Z,17.45
2023-05-07T00:23:36.021Z,16.80
2023-05-07T00:26:23.945Z,17.90
2023-05-07T00:29:11.419Z,15.68
2023-05-07T00:31:58.923Z,17.17
2023-05-07T00:34:46.393Z,17.17
2023-05-07T00:37:33.914Z,17.63
2023-05-07T00:40:21.384Z,16.90
2023-05-07T00:43:09.081Z,17.35
2023-05-07T00:45:57.215Z,17.27
2023-05-07T00:48:44.978Z,18.08
2023-05-07T00:51:32.473Z,18.42
2023-05-07T00:54:20.906Z,16.35
2023-05-07T00:57:08.653Z,18.70
2023-05-07T00:59:56.831Z,16.35
2023-05-07T01:02:45.031Z,16.00
2023-05-07T01:05:33.192Z,15.10
2023-05-07T01:08:22.070Z,18.80
2023-05-07T01:11:10.463Z,17.48
2023-05-07T01:14:00.842Z,19.02
2023-05-07T01:16:49.878Z,15.15
2023-05-07T01:19:37.902Z,17.08
2023-05-07T01:22:37.985Z,18.35
2023-05-07T01:25:25.949Z,14.65
2023-05-07T01:28:13.446Z,18.05
2023-05-07T01:31:04.835Z,20.30
2023-05-07T01:33:54.411Z,16.85
2023-05-07T01:36:44.708Z,20.15
2023-05-07T01:39:33.391Z,17.63
2023-05-07T01:42:21.424Z,17.88
2023-05-07T01:45:09.539Z,21.67
2023-05-07T01:47:58.913Z,17.80
2023-05-07T01:50:46.836Z,18.52
2023-05-07T01:53:39.056Z,20.95
2023-05-07T01:56:27.050Z,20.55
2023-05-07T01:59:14.999Z,18.48
2023-05-07T02:02:02.492Z,19.80
2023-05-07T02:04:49.959Z,20.50
2023-05-07T02:07:37.613Z,20.65
2023-05-07T02:10:25.169Z,20.20
2023-05-07T02:13:12.713Z,18.42
2023-05-07T02:16:00.353Z,18.10
2023-05-07T02:18:47.888Z,18.60
2023-05-07T02:21:35.352Z,18.50
2023-05-07T02:24:23.096Z,18.55
2023-05-07T02:27:10.580Z,19.42
2023-05-07T02:29:58.341Z,18.83
2023-05-07T02:32:46.018Z,19.70
2023-05-07T02:35:33.611Z,20.98
2023-05-07T02:38:21.187Z,20.50
2023-05-07T02:41:08.762Z,19.95
2023-05-07T02:43:56.255Z,20.30
2023-05-07T02:46:43.712Z,18.33
2023-05-07T02:49:31.140Z,19.17
2023-05-07T02:52:18.588Z,20.83
2023-05-07T02:55:06.931Z,20.77
2023-05-07T02:57:54.419Z,20.77
2023-05-07T03:00:41.858Z,20.40
2023-05-07T03:03:29.334Z,19.35
2023-05-07T03:06:16.807Z,22.75
2023-05-07T03:09:04.424Z,22.38
2023-05-07T03:11:51.887Z,21.35
2023-05-07T03:14:39.369Z,22.08
2023-05-07T03:17:26.970Z,22.63
2023-05-07T03:20:15.068Z,20.95
2023-05-07T03:23:02.672Z,22.65
2023-05-07T03:25:51.006Z,22.45
2023-05-07T03:28:39.021Z,23.58
2023-05-07T03:31:26.530Z,21.45
2023-05-07T03:34:14.001Z,21.45
2023-05-07T03:37:01.989Z,22.63
2023-05-07T03:39:49.405Z,21.08
2023-05-07T03:42:37.008Z,22.23
2023-05-07T03:45:24.430Z,23.13
2023-05-07T03:48:11.935Z,22.60
2023-05-07T03:51:00.229Z,22.65
2023-05-07T03:53:47.731Z,24.65
2023-05-07T03:56:35.236Z,23.77
2023-05-07T03:59:23.871Z,24.35
2023-05-07T04:02:11.371Z,25.88
2023-05-07T04:04:58.811Z,23.75
2023-05-07T04:07:46.219Z,25.00
2023-05-07T04:10:33.715Z,25.95
2023-05-07T04:13:21.168Z,22.77
2023-05-07T04:16:09.433Z,22.77
2023-05-07T04:18:57.178Z,23.15
2023-05-07T04:21:44.920Z,20.17
2023-05-07T04:24:35.350Z,17.00
2023-05-07T04:27:23.083Z,14.52
2023-05-07T04:30:11.275Z,14.48
2023-05-07T04:32:59.162Z,13.07
2023-05-07T04:35:47.518Z,12.60
2023-05-07T04:38:35.063Z,12.15
2023-05-07T04:41:22.521Z,9.63
2023-05-07T04:44:10.697Z,9.20
2023-05-07T04:46:59.091Z,8.73
2023-05-07T04:49:46.556Z,7.20
2023-05-07T04:52:34.036Z,6.40
2023-05-07T04:55:21.535Z,6.25
2023-05-07T04:58:09.237Z,6.25
2023-05-07T05:00:57.827Z,6.30
2023-05-07T05:03:45.309Z,6.03
2023-05-07T05:06:32.760Z,6.15
2023-05-07T05:09:20.206Z,5.35
2023-05-07T05:12:08.704Z,6.38
2023-05-07T05:14:56.254Z,6.00
2023-05-07T05:17:43.811Z,6.55
2023-05-07T05:20:31.539Z,5.93
2023-05-07T05:23:19.137Z,6.97
2023-05-07T05:26:06.609Z,5.88
2023-05-07T05:28:57.305Z,6.35
2023-05-07T05:31:44.807Z,6.10
2023-05-07T05:34:32.376Z,5.43
2023-05-07T05:37:19.936Z,5.68
2023-05-07T05:40:08.367Z,5.13
2023-05-07T05:42:56.126Z,4.93
2023-05-07T05:45:43.650Z,4.88
2023-05-07T05:48:31.475Z,4.65
2023-05-07T05:51:18.990Z,5.68
2023-05-07T05:54:06.637Z,5.53
2023-05-07T05:56:54.165Z,5.00
2023-05-07T05:59:41.630Z,5.10
2023-05-07T06:02:29.170Z,5.30
2023-05-07T06:05:16.886Z,5.25
2023-05-07T06:08:04.803Z,4.88
2023-05-07T06:10:52.365Z,4.95
2023-05-07T06:13:39.863Z,5.43
2023-05-07T06:16:27.550Z,5.15
2023-05-07T06:19:15.104Z,4.60
2023-05-07T06:22:03.809Z,5.53
2023-05-07T06:24:51.585Z,5.40
2023-05-07T06:27:40.919Z,5.20
2023-05-07T06:30:28.599Z,5.05
2023-05-07T06:33:16.094Z,4.75
2023-05-07T06:36:59.986Z,4.93
2023-05-07T06:39:47.421Z,5.18
2023-05-07T06:42:35.070Z,5.18
2023-05-07T06:45:22.527Z,5.03
2023-05-07T06:48:09.976Z,5.25
2023-05-07T06:50:58.866Z,4.25
2023-05-07T06:53:47.352Z,4.95
2023-05-07T06:56:35.985Z,5.10
2023-05-07T06:59:23.417Z,5.82
2023-05-07T07:02:10.893Z,4.15
2023-05-07T07:04:58.356Z,4.80
2023-05-07T07:07:46.370Z,4.45
2023-05-07T07:10:34.099Z,4.53
2023-05-07T07:13:21.586Z,4.40
2023-05-07T07:16:09.211Z,4.82
2023-05-07T07:18:56.739Z,4.38
2023-05-07T07:21:44.457Z,3.92
2023-05-07T07:24:31.879Z,4.57
2023-05-07T07:27:19.388Z,3.92
2023-05-07T07:30:08.083Z,4.40
2023-05-07T07:32:56.564Z,4.20
2023-05-07T07:35:44.017Z,4.13
2023-05-07T07:38:31.658Z,3.85
2023-05-07T07:41:19.099Z,3.88
2023-05-07T07:44:08.822Z,3.95
2023-05-07T07:46:56.285Z,3.92
2023-05-07T07:49:43.838Z,3.58
2023-05-07T07:52:31.329Z,3.75
2023-05-07T07:55:24.256Z,3.85
2023-05-07T07:58:11.775Z,3.88
2023-05-07T08:00:59.566Z,3.13
2023-05-07T08:03:47.101Z,3.58
2023-05-07T08:06:34.665Z,2.97
2023-05-07T08:09:22.188Z,3.47
2023-05-07T08:12:09.824Z,3.47
2023-05-07T08:14:57.423Z,3.53
2023-05-07T08:17:45.445Z,3.10
2023-05-07T08:20:33.417Z,3.20
2023-05-07T08:23:20.950Z,2.85
2023-05-07T08:26:09.885Z,3.13
2023-05-07T08:28:57.396Z,3.30
2023-05-07T08:31:44.854Z,3.55
2023-05-07T08:34:32.315Z,3.40
2023-05-07T08:37:19.808Z,3.65
2023-05-07T08:40:11.406Z,3.40
2023-05-07T08:43:02.203Z,3.72
2023-05-07T08:45:51.290Z,3.70
2023-05-07T08:48:39.010Z,4.40
2023-05-07T08:51:26.981Z,4.30
2023-05-07T08:54:18.075Z,3.80
2023-05-07T08:57:05.701Z,4.30
2023-05-07T08:59:53.120Z,4.38
2023-05-07T09:02:40.950Z,4.05
2023-05-07T09:05:28.576Z,3.80
2023-05-07T09:08:17.611Z,3.20
2023-05-07T09:11:29.724Z,3.53
2023-05-07T09:14:17.297Z,3.13
2023-05-07T09:17:04.837Z,4.13
2023-05-07T09:19:52.351Z,4.05
2023-05-07T09:22:40.204Z,3.53
2023-05-07T09:25:33.159Z,3.85
2023-05-07T09:28:20.780Z,3.80
2023-05-07T09:31:09.453Z,3.28
2023-05-07T09:33:57.543Z,3.20
2023-05-07T09:36:45.048Z,3.53
2023-05-07T09:39:48.703Z,3.40
2023-05-07T09:42:36.336Z,3.65
2023-05-07T09:45:30.727Z,2.90
2023-05-07T09:48:19.957Z,3.15
2023-05-07T09:51:24.085Z,2.95
2023-05-07T09:54:12.425Z,2.90
2023-05-07T09:57:00.834Z,2.92
2023-05-07T09:59:49.180Z,2.92
2023-05-07T10:02:38.481Z,2.80
2023-05-07T10:05:27.123Z,2.70
2023-05-07T10:08:18.175Z,3.17
2023-05-07T10:11:07.351Z,2.60
2023-05-07T10:13:54.969Z,3.10
2023-05-07T10:16:42.891Z,2.58
2023-05-07T10:19:31.364Z,2.70
2023-05-07T10:22:20.173Z,2.40
2023-05-07T10:25:27.039Z,2.33
2023-05-07T10:28:14.941Z,2.70
2023-05-07T10:31:23.974Z,2.58
2023-05-07T10:34:15.377Z,2.63
2023-05-07T10:37:03.872Z,2.78
2023-05-07T10:39:51.488Z,2.78
2023-05-07T10:42:38.968Z,2.72
2023-05-07T10:45:27.290Z,1.90
2023-05-07T10:51:23.164Z,2.40
2023-05-07T10:54:14.022Z,2.13
2023-05-07T10:57:33.558Z,2.35
2023-05-07T11:00:38.917Z,2.78
2023-05-07T11:03:28.619Z,2.00
2023-05-07T11:06:17.839Z,2.30
2023-05-07T11:09:05.350Z,2.20
2023-05-07T11:11:52.849Z,2.20
2023-05-07T11:14:43.697Z,2.40
2023-05-07T11:17:35.715Z,1.92
2023-05-07T11:20:56.772Z,2.38
2023-05-07T11:23:50.096Z,1.90
2023-05-07T11:26:51.457Z,1.75
2023-05-07T11:29:39.247Z,1.67
2023-05-07T11:32:32.730Z,1.70
2023-05-07T11:35:25.638Z,1.50
2023-05-07T11:38:14.508Z,1.77
2023-05-07T11:41:03.109Z,1.40
2023-05-07T11:43:58.626Z,1.70
2023-05-07T11:46:46.675Z,1.92
2023-05-07T11:49:35.696Z,1.92
2023-05-07T11:52:25.159Z,1.55
2023-05-07T11:55:12.869Z,1.52
2023-05-07T11:58:00.467Z,1.65
2023-05-07T12:00:55.419Z,1.60
2023-05-07T12:03:45.415Z,1.77
2023-05-07T12:06:32.907Z,1.60
2023-05-07T12:09:20.568Z,1.70
2023-05-07T12:12:08.431Z,1.35
2023-05-07T12:14:55.883Z,1.80
2023-05-07T12:17:44.016Z,1.80
2023-05-07T12:20:31.568Z,1.85
2023-05-07T12:23:19.605Z,1.30
2023-05-07T12:26:07.824Z,1.55
2023-05-07T12:28:55.474Z,1.42
2023-05-07T12:31:43.868Z,1.45
2023-05-07T12:34:32.838Z,1.50
2023-05-07T12:37:27.079Z,1.40
2023-05-07T12:40:15.878Z,1.27
2023-05-07T12:43:03.418Z,1.45
2023-05-07T12:45:52.811Z,1.52
2023-05-07T12:48:45.125Z,1.50
2023-05-07T12:51:32.630Z,1.60
2023-05-07T12:54:34.239Z,1.30
2023-05-07T12:57:22.410Z,1.52
2023-05-07T13:00:10.942Z,1.05
2023-05-07T13:03:00.478Z,1.00
2023-05-07T13:05:47.997Z,1.20
2023-05-07T13:08:38.964Z,1.40
2023-05-07T13:11:26.406Z,1.38
2023-05-07T13:14:14.186Z,1.23
2023-05-07T13:17:01.642Z,1.08
2023-05-07T13:19:49.235Z,1.30
2023-05-07T13:22:37.058Z,1.10
2023-05-07T13:25:24.623Z,1.30
2023-05-07T13:28:12.096Z,1.30
2023-05-07T13:30:59.579Z,1.38
2023-05-07T13:33:46.995Z,1.00
2023-05-07T13:36:38.407Z,1.27
2023-05-07T13:39:26.044Z,1.42
2023-05-07T13:42:13.493Z,1.13
2023-05-07T13:45:01.606Z,1.30
2023-05-07T13:47:50.876Z,1.75
2023-05-07T13:50:38.340Z,1.40
2023-05-07T13:53:25.984Z,1.17
2023-05-07T13:56:13.392Z,1.40
2023-05-07T13:59:01.255Z,1.30
2023-05-07T14:01:49.342Z,1.45
2023-05-07T14:04:36.812Z,1.20
2023-05-07T14:07:24.261Z,1.15
2023-05-07T14:10:12.749Z,1.30
2023-05-07T14:13:00.496Z,1.20
2023-05-07T14:15:49.849Z,1.55
2023-05-07T14:18:38.368Z,1.00
2023-05-07T14:21:25.876Z,1.02
2023-05-07T14:24:13.530Z,1.13
2023-05-07T14:27:01.194Z,1.30
2023-05-07T14:29:52.217Z,1.40
2023-05-07T14:32:39.654Z,1.45
2023-05-07T14:35:27.142Z,1.42
2023-05-07T14:38:14.592Z,1.20
2023-05-07T14:41:02.110Z,1.20
2023-05-07T14:43:51.307Z,1.45
2023-05-07T14:46:38.758Z,1.10
2023-05-07T14:49:26.228Z,1.10
2023-05-07T14:52:13.686Z,0.90
2023-05-07T14:55:01.614Z,0.90
2023-05-07T14:57:49.088Z,0.95
2023-05-07T15:00:36.589Z,1.00
2023-05-07T15:03:24.545Z,1.00
2023-05-07T15:06:12.121Z,0.80
2023-05-07T15:08:59.634Z,1.13
2023-05-07T15:11:47.110Z,0.70
2023-05-07T15:14:34.702Z,1.00
2023-05-07T15:17:22.402Z,0.93
2023-05-07T15:20:10.488Z,1.05
2023-05-07T15:22:58.161Z,0.90
2023-05-07T15:25:46.841Z,0.80
2023-05-07T15:28:35.992Z,0.73
2023-05-07T15:31:23.694Z,0.70
2023-05-07T15:34:11.389Z,0.60
2023-05-07T15:36:58.818Z,0.90
2023-05-07T15:39:46.286Z,0.70
2023-05-07T15:42:34.852Z,0.90
2023-05-07T15:45:22.503Z,0.50
2023-05-07T15:48:11.752Z,0.80
2023-05-07T15:51:00.349Z,0.60
2023-05-07T15:53:47.973Z,0.60
2023-05-07T15:56:35.523Z,0.50
2023-05-07T15:59:23.065Z,0.70
2023-05-07T16:02:10.720Z,0.93
2023-05-07T16:04:58.187Z,0.80
2023-05-07T16:07:45.620Z,0.65
2023-05-07T16:10:33.099Z,1.10
2023-05-07T16:13:21.394Z,0.70
2023-05-07T16:16:09.011Z,0.90
2023-05-07T16:18:57.275Z,1.00
2023-05-07T16:21:44.870Z,1.00
2023-05-07T16:24:33.014Z,1.00
2023-05-07T16:27:20.409Z,1.00
2023-05-07T16:30:08.949Z,0.75
2023-05-07T16:32:56.625Z,0.80
2023-05-07T16:35:47.946Z,0.80
2023-05-07T16:38:35.425Z,0.93
2023-05-07T16:41:23.401Z,0.80
2023-05-07T16:44:11.133Z,0.80
2023-05-07T16:46:58.594Z,0.73
2023-05-07T16:49:46.090Z,0.70
2023-05-07T16:52:33.626Z,0.60
2023-05-07T16:55:21.227Z,0.70
2023-05-07T16:58:11.556Z,0.77
2023-05-07T17:00:59.105Z,0.80
2023-05-07T17:03:46.749Z,0.90
2023-05-07T17:06:34.296Z,0.70
2023-05-07T17:09:21.739Z,0.98
2023-05-07T17:12:09.237Z,1.00
2023-05-07T17:14:56.773Z,1.00
2023-05-07T17:17:44.420Z,0.70
2023-05-07T17:20:31.953Z,0.90
2023-05-07T17:23:19.432Z,1.00
2023-05-07T17:26:15.711Z,1.20
2023-05-07T17:29:04.077Z,1.30
2023-05-07T17:31:51.995Z,2.20
2023-05-07T17:34:39.403Z,1.80
2023-05-07T17:37:27.488Z,1.10
2023-05-07T17:40:15.714Z,1.20
2023-05-07T17:43:03.259Z,1.08
2023-05-07T17:45:51.350Z,1.13
2023-05-07T17:48:38.904Z,0.98
2023-05-07T17:51:26.608Z,1.15
2023-05-07T17:54:14.073Z,0.90
2023-05-07T17:57:01.659Z,1.10
2023-05-07T17:59:49.388Z,0.82
2023-05-07T18:02:37.209Z,1.10
2023-05-07T18:05:31.461Z,1.30
2023-05-07T18:08:18.930Z,1.45
2023-05-07T18:11:06.670Z,1.35
2023-05-07T18:13:54.137Z,1.45
2023-05-07T18:16:41.838Z,1.67
2023-05-07T18:19:29.391Z,2.33
2023-05-07T18:22:16.966Z,1.85
2023-05-07T18:25:05.261Z,1.70
2023-05-07T18:27:52.742Z,4.20
2023-05-07T18:30:40.392Z,7.75
2023-05-07T18:33:27.855Z,3.40
2023-05-07T18:36:15.286Z,1.92
2023-05-07T18:39:03.889Z,2.03
2023-05-07T18:41:51.342Z,1.90
2023-05-07T18:44:39.184Z,1.80
2023-05-07T18:47:26.621Z,2.13
2023-05-07T18:50:14.631Z,2.50
2023-05-07T18:53:02.501Z,2.30
2023-05-07T18:55:53.885Z,3.80
2023-05-07T18:58:41.289Z,9.40
2023-05-07T19:01:28.823Z,7.45
2023-05-07T19:04:17.784Z,7.80
2023-05-07T19:07:05.336Z,6.93
2023-05-07T19:10:04.118Z,5.72
2023-05-07T19:12:55.854Z,4.55
2023-05-07T19:15:43.501Z,3.53
2023-05-07T19:18:32.228Z,2.95
2023-05-07T19:21:19.734Z,2.50
2023-05-07T19:24:07.973Z,2.80
2023-05-07T19:26:55.390Z,2.00
2023-05-07T19:29:43.990Z,2.10
2023-05-07T19:32:31.633Z,1.77
2023-05-07T19:35:19.442Z,1.80
2023-05-07T19:38:07.746Z,2.00
2023-05-07T19:40:56.180Z,2.00
2023-05-07T19:43:43.625Z,2.08
2023-05-07T19:46:31.151Z,2.08
2023-05-07T19:49:18.834Z,1.90
2023-05-07T19:52:06.413Z,1.77
2023-05-07T19:54:54.229Z,1.75
2023-05-07T19:57:41.701Z,2.28
2023-05-07T20:00:32.563Z,2.30
2023-05-07T20:03:20.112Z,2.45
2023-05-07T20:06:07.602Z,2.30
2023-05-07T20:08:55.092Z,2.58
2023-05-07T20:11:42.573Z,2.20
2023-05-07T20:14:30.109Z,2.60
2023-05-07T20:17:17.657Z,2.17
2023-05-07T20:20:05.908Z,1.80
2023-05-07T20:22:53.311Z,1.85
2023-05-07T20:25:42.376Z,1.77
2023-05-07T20:28:30.289Z,1.75
2023-05-07T20:31:18.584Z,2.33
2023-05-07T20:34:06.069Z,2.22
2023-05-07T20:36:53.871Z,2.30
2023-05-07T20:39:42.235Z,2.55
2023-05-07T20:42:30.093Z,3.20
2023-05-07T20:45:17.675Z,5.85
2023-05-07T20:48:05.416Z,11.82
2023-05-07T20:50:52.888Z,11.32
2023-05-07T20:53:41.153Z,10.68
2023-05-07T20:56:28.545Z,8.88
2023-05-07T20:59:16.658Z,4.85
2023-05-07T21:02:04.215Z,3.65
2023-05-07T21:04:52.764Z,3.67
2023-05-07T21:07:40.219Z,3.35
2023-05-07T21:10:27.828Z,3.70
2023-05-07T21:13:16.154Z,6.38
2023-05-07T21:16:04.056Z,11.65
2023-05-07T21:18:51.523Z,16.55
2023-05-07T21:21:39.185Z,22.65
2023-05-07T21:24:26.830Z,16.70
2023-05-07T21:27:14.512Z,11.68
2023-05-07T21:30:05.109Z,9.25
2023-05-07T21:32:53.382Z,5.55
2023-05-07T21:35:41.022Z,5.38
2023-05-07T21:38:28.528Z,3.45
2023-05-07T21:41:16.000Z,3.55
2023-05-07T21:44:05.015Z,2.58
2023-05-07T21:46:52.451Z,2.90
2023-05-07T21:49:41.833Z,3.00
2023-05-07T21:52:29.355Z,2.80
2023-05-07T21:55:19.133Z,2.53
2023-05-07T21:58:06.576Z,2.38
2023-05-07T22:00:54.315Z,2.53
2023-05-07T22:03:41.926Z,2.05
2023-05-07T22:06:29.449Z,2.55
2023-05-07T22:09:17.350Z,2.40
2023-05-07T22:12:05.345Z,2.42
2023-05-07T22:14:52.775Z,2.47
2023-05-07T22:17:40.346Z,2.60
2023-05-07T22:20:28.044Z,2.38
2023-05-07T22:23:15.854Z,2.67
2023-05-07T22:26:11.875Z,3.67
2023-05-07T22:31:46.632Z,2.80
2023-05-07T22:34:34.142Z,3.25
2023-05-07T22:37:21.545Z,4.22
2023-05-07T22:40:10.033Z,5.85
2023-05-07T22:42:57.673Z,7.55
2023-05-07T22:45:45.196Z,6.90
2023-05-07T22:48:35.688Z,5.85
2023-05-07T22:51:23.206Z,4.93
2023-05-07T22:54:11.510Z,3.60
2023-05-07T22:57:00.194Z,3.33
2023-05-07T22:59:47.617Z,2.70
2023-05-07T23:02:35.117Z,2.40
2023-05-07T23:05:23.167Z,1.90
2023-05-07T23:08:10.789Z,3.03
2023-05-07T23:10:58.229Z,2.40
2023-05-07T23:13:45.718Z,2.63
2023-05-07T23:16:33.372Z,2.33
2023-05-07T23:19:20.923Z,2.00
2023-05-07T23:22:08.461Z,2.58
2023-05-07T23:24:56.079Z,2.40
2023-05-07T23:27:43.539Z,2.35
2023-05-07T23:30:30.983Z,2.75
2023-05-07T23:33:18.378Z,2.90
2023-05-07T23:36:07.819Z,3.38
2023-05-07T23:38:55.552Z,3.50
2023-05-07T23:41:43.189Z,3.33
2023-05-07T23:44:30.580Z,3.22
2023-05-07T23:47:18.170Z,3.47
2023-05-07T23:50:06.451Z,3.03
2023-05-07T23:52:53.909Z,2.80
2023-05-07T23:55:41.304Z,2.75
2023-05-07T23:58:28.742Z,2.50
